Time;durP1;ratioP1;P1;durP2;ratioP2;P2;SDS_P1;SDS_P2;PMS_P1;PMS_P2;Temp;Humidity;BMP_temperature;BMP_pressure;BME280_temperature;BME280_humidity;BME280_pressure;Samples;Min_cycle;Max_cycle;Signal;HPM_P1;HPM_P2
2021/06/15 00:01:12;;;;;;;2.44;1.69;;;;;;;15.11;78.75;99519.47;1990494;78;20931;-75
2021/06/15 00:04:14;;;;;;;3.60;1.45;;;;;;;15.08;78.64;99511.69;1992261;81;20296;-73
2021/06/15 00:07:17;;;;;;;5.57;1.55;;;;;;;15.05;78.83;99519.56;1992234;81;20964;-74
2021/06/15 00:10:23;;;;;;;2.08;1.88;;;;;;;15.00;79.05;99520.56;1995085;81;20212;-72
2021/06/15 00:13:26;;;;;;;3.97;1.55;;;;;;;14.90;79.13;99519.03;1991874;81;20208;-73
2021/06/15 00:16:29;;;;;;;3.90;1.66;;;;;;;14.87;79.18;99512.09;1991125;78;20241;-73
2021/06/15 00:19:32;;;;;;;5.36;1.80;;;;;;;14.83;79.48;99510.44;1991797;81;20175;-76
2021/06/15 00:22:35;;;;;;;2.05;1.44;;;;;;;14.78;79.35;99509.69;1991634;81;20666;-75
2021/06/15 00:25:38;;;;;;;2.53;1.75;;;;;;;14.76;79.19;99507.09;1991371;81;20253;-75
2021/06/15 00:28:40;;;;;;;1.84;1.49;;;;;;;14.73;79.22;99506.31;1991190;81;20155;-75
2021/06/15 00:31:43;;;;;;;3.09;1.90;;;;;;;14.69;79.53;99502.88;1990573;78;20401;-75
2021/06/15 00:43:18;;;;;;;4.79;1.48;;;;;;;14.52;80.33;99492.72;1990739;81;20294;-75
2021/06/15 00:46:37;;;;;;;;;;;;;;;14.48;80.75;99498.91;1989757;79;20276;-75
2021/06/15 00:49:41;;;;;;;2.09;1.42;;;;;;;14.45;81.03;99493.75;1990866;81;20124;-75
2021/06/15 00:52:43;;;;;;;5.70;1.73;;;;;;;14.40;81.49;99490.34;1990983;81;20279;-75
2021/06/15 00:55:47;;;;;;;3.08;1.66;;;;;;;14.39;81.77;99492.97;1987632;81;20179;-75
2021/06/15 00:58:51;;;;;;;4.80;1.60;;;;;;;14.33;81.58;99487.84;1991397;81;20182;-75
2021/06/15 01:01:53;;;;;;;1.98;1.50;;;;;;;14.28;81.51;99493.16;1990330;78;27052;-75
2021/06/15 01:04:59;;;;;;;3.41;1.90;;;;;;;14.28;81.42;99497.53;1992317;81;20175;-75
2021/06/15 01:08:11;;;;;;;2.55;1.64;;;;;;;14.24;81.25;99501.94;1990946;81;20226;-74
2021/06/15 01:11:33;;;;;;;2.86;1.75;;;;;;;14.18;81.31;99500.31;1991974;81;20859;-74
2021/06/15 01:14:52;;;;;;;2.50;1.73;;;;;;;14.15;81.37;99502.09;1991366;81;20791;-75
2021/06/15 01:18:00;;;;;;;4.85;2.09;;;;;;;14.12;81.55;99497.78;1990809;79;20191;-75
2021/06/15 01:21:07;;;;;;;;;;;;;;;14.11;81.70;99496.06;1991825;81;20198;-75
2021/06/15 01:24:21;;;;;;;3.13;1.88;;;;;;;14.05;81.97;99492.69;1991421;81;20067;-75
2021/06/15 01:27:36;;;;;;;3.85;1.75;;;;;;;14.03;82.13;99492.72;1991582;81;20232;-75
2021/06/15 01:31:13;;;;;;;2.03;1.80;;;;;;;14.03;82.13;99499.69;1990352;78;20653;-75
2021/06/15 01:34:22;;;;;;;4.96;1.84;;;;;;;13.94;82.12;99497.22;1988440;81;20642;-74
2021/06/15 01:37:42;;;;;;;4.38;2.06;;;;;;;13.89;82.28;99489.47;1991556;81;21104;-76
2021/06/15 01:40:53;;;;;;;3.36;2.10;;;;;;;13.88;82.36;99485.16;1991590;81;20248;-75
2021/06/15 01:44:00;;;;;;;7.06;2.28;;;;;;;13.86;82.38;99485.19;1991089;81;20226;-75
2021/06/15 01:47:09;;;;;;;3.28;2.25;;;;;;;13.80;82.75;99485.25;1989908;78;20240;-75
2021/06/15 01:50:14;;;;;;;3.54;1.69;;;;;;;13.77;82.65;99490.53;1990652;81;20183;-75
2021/06/15 01:53:19;;;;;;;3.28;2.17;;;;;;;13.77;82.98;99482.69;1990714;81;20311;-74
2021/06/15 01:56:22;;;;;;;4.97;1.95;;;;;;;13.69;83.23;99483.72;1991307;81;20252;-74
2021/06/15 01:59:26;;;;;;;2.85;2.16;;;;;;;13.68;83.30;99485.47;1991358;81;20966;-75
2021/06/15 02:02:30;;;;;;;2.65;2.00;;;;;;;13.67;83.46;99483.75;1990747;78;20996;-75
2021/06/15 02:05:40;;;;;;;2.25;2.03;;;;;;;13.67;83.27;99485.50;1992638;81;20187;-75
2021/06/15 02:08:45;;;;;;;6.35;2.59;;;;;;;13.63;83.18;99489.00;1992426;81;20180;-75
2021/06/15 02:11:49;;;;;;;3.58;2.22;;;;;;;13.61;83.41;99491.66;1992556;81;20206;-75
2021/06/15 02:14:54;;;;;;;4.01;2.04;;;;;;;13.59;83.56;99486.44;1992396;81;20205;-75
2021/06/15 02:17:59;;;;;;;3.16;2.21;;;;;;;13.59;83.59;99496.03;1992100;78;22029;-75
2021/06/15 02:21:08;;;;;;;3.30;1.91;;;;;;;13.54;83.49;99496.09;1992543;81;20179;-74
2021/06/15 02:24:11;;;;;;;3.28;2.16;;;;;;;13.54;83.29;99492.63;1992252;81;20175;-74
2021/06/15 02:27:18;;;;;;;3.97;1.80;;;;;;;13.53;83.03;99488.31;1992979;81;20191;-75
2021/06/15 02:30:23;;;;;;;4.49;2.17;;;;;;;13.48;82.82;99491.00;1991846;78;24336;-75
2021/06/15 02:33:35;;;;;;;2.88;1.80;;;;;;;13.42;82.79;99493.66;1992409;81;20589;-75
2021/06/15 02:36:39;;;;;;;4.15;2.30;;;;;;;13.39;82.93;99493.72;1991871;81;20168;-74
2021/06/15 02:39:42;;;;;;;2.55;1.86;;;;;;;13.34;83.29;99498.13;1992500;81;20250;-75
2021/06/15 02:42:46;;;;;;;2.75;1.98;;;;;;;13.33;83.30;99495.56;1992502;81;20277;-75
2021/06/15 02:45:51;;;;;;;3.71;2.66;;;;;;;13.29;83.29;99492.13;1992556;81;20179;-75
2021/06/15 02:48:57;;;;;;;4.60;2.50;;;;;;;13.27;83.34;99499.09;1992691;81;20218;-74
2021/06/15 02:52:21;;;;;;;4.22;1.81;;;;;;;13.24;83.39;99500.00;1993206;81;20328;-75
2021/06/15 02:55:31;;;;;;;2.15;1.98;;;;;;;13.21;83.37;99502.66;1993770;81;20195;-75
2021/06/15 02:58:34;;;;;;;3.72;1.77;;;;;;;13.22;83.65;99499.16;1993520;81;20876;-75
2021/06/15 03:01:37;;;;;;;2.96;1.89;;;;;;;13.20;83.53;99495.72;1991970;78;25759;-75
2021/06/15 03:04:39;;;;;;;2.84;1.64;;;;;;;13.15;83.49;99500.09;1992608;81;20171;-75
2021/06/15 03:07:44;;;;;;;8.24;2.05;;;;;;;13.12;83.43;99496.69;1992303;81;20661;-75
2021/06/15 03:10:47;;;;;;;2.51;1.70;;;;;;;13.07;83.44;99498.47;1992914;81;20297;-75
2021/06/15 03:13:54;;;;;;;2.08;1.63;;;;;;;13.01;83.58;99495.06;1991894;81;20714;-75
2021/06/15 03:17:02;;;;;;;2.76;2.05;;;;;;;12.98;83.52;99497.72;1991386;78;21604;-75
2021/06/15 03:20:08;;;;;;;2.16;1.80;;;;;;;12.91;83.55;99496.03;1991277;81;20221;-74
2021/06/15 03:23:58;;;;;;;2.25;1.89;;;;;;;12.80;83.79;99492.72;1991519;81;20277;-74
2021/06/15 03:27:10;;;;;;;2.35;2.00;;;;;;;12.78;84.25;99494.47;1992279;81;20175;-75
2021/06/15 03:30:14;;;;;;;2.46;1.95;;;;;;;12.79;84.53;99493.59;1990579;81;20191;-76
2021/06/15 03:33:19;;;;;;;4.45;1.84;;;;;;;12.81;84.56;99491.84;1991875;78;23830;-75
2021/06/15 03:36:24;;;;;;;1.86;1.76;;;;;;;12.80;84.35;99490.13;1991459;81;20250;-75
2021/06/15 03:39:30;;;;;;;3.25;2.16;;;;;;;12.80;84.27;99491.84;1991530;81;20761;-74
2021/06/15 03:42:38;;;;;;;4.20;2.22;;;;;;;12.75;84.10;99485.81;1991634;81;20183;-75
2021/06/15 03:45:45;;;;;;;4.34;2.40;;;;;;;12.70;84.17;99491.94;1990344;78;24813;-74
2021/06/15 03:48:51;;;;;;;3.86;2.47;;;;;;;12.69;84.26;99492.81;1991738;81;20209;-74
2021/06/15 03:51:59;;;;;;;6.46;3.10;;;;;;;12.66;84.29;99495.47;1997533;81;20202;-74
2021/06/15 03:55:04;;;;;;;5.16;2.72;;;;;;;12.63;84.37;99492.91;1997133;81;20307;-74
2021/06/15 03:58:09;;;;;;;5.93;2.26;;;;;;;12.64;84.62;99502.44;1996657;81;20902;-74
2021/06/15 04:01:17;;;;;;;5.80;2.06;;;;;;;12.65;84.69;99498.09;1995708;78;21232;-74
2021/06/15 04:04:21;;;;;;;4.03;2.36;;;;;;;12.64;84.76;99502.44;1996606;81;20734;-73
2021/06/15 04:07:24;;;;;;;4.09;2.09;;;;;;;12.68;84.99;99500.66;1996330;81;20977;-73
2021/06/15 04:10:29;;;;;;;3.00;1.91;;;;;;;12.71;84.80;99500.63;1997038;81;20329;-73
2021/06/15 04:13:33;;;;;;;4.81;2.35;;;;;;;12.68;84.76;99498.91;1996577;81;20673;-72
2021/06/15 04:16:37;;;;;;;2.61;1.89;;;;;;;12.76;84.85;99505.81;1995605;81;24726;-73
2021/06/15 04:19:45;;;;;;;2.76;2.15;;;;;;;12.80;84.85;99504.88;1996579;81;20331;-73
2021/06/15 04:22:48;;;;;;;4.41;2.29;;;;;;;12.85;85.00;99506.53;1995941;81;20248;-72
2021/06/15 04:25:51;;;;;;;6.60;2.25;;;;;;;12.86;84.92;99505.66;1996373;81;20869;-73
2021/06/15 04:28:54;;;;;;;2.92;1.96;;;;;;;12.86;85.07;99510.00;1996387;81;20302;-72
2021/06/15 04:32:00;;;;;;;4.39;2.24;;;;;;;12.96;85.29;99519.47;1995746;81;22368;-72
2021/06/15 04:35:06;;;;;;;5.14;2.31;;;;;;;13.10;85.36;99517.53;1996745;81;20183;-73
2021/06/15 04:38:12;;;;;;;3.35;2.08;;;;;;;13.26;85.05;99513.88;1992471;81;20275;-73
2021/06/15 04:41:37;;;;;;;3.84;2.22;;;;;;;13.37;84.77;99515.50;1996797;81;20255;-73
2021/06/15 04:44:47;;;;;;;2.92;2.15;;;;;;;13.55;84.30;99515.22;1996365;81;20207;-72
2021/06/15 04:48:07;;;;;;;2.28;1.98;;;;;;;13.73;83.74;99514.94;1996735;78;23434;-73
2021/06/15 04:51:11;;;;;;;2.80;2.06;;;;;;;13.89;82.92;99512.97;1996418;81;20188;-73
2021/06/15 04:54:19;;;;;;;8.31;2.45;;;;;;;14.10;81.88;99520.44;1996825;81;20216;-73
2021/06/15 04:57:32;;;;;;;;;;;;;;;14.29;81.33;99520.13;1996850;81;20234;-73
2021/06/15 05:00:37;;;;;;;8.15;1.54;;;;;;;14.49;81.07;99528.50;1995922;78;20124;-72
2021/06/15 05:03:40;;;;;;;3.49;2.09;;;;;;;14.69;80.74;99531.63;1996706;81;20227;-73
2021/06/15 05:06:43;;;;;;;2.69;1.77;;;;;;;14.86;80.02;99525.22;1996145;81;20194;-72
2021/06/15 05:09:52;;;;;;;2.85;1.88;;;;;;;15.05;79.19;99530.03;1996715;81;20197;-73
2021/06/15 05:12:56;;;;;;;6.09;2.08;;;;;;;15.40;78.35;99534.53;1996367;81;20657;-73
2021/06/15 05:15:59;;;;;;;4.86;2.33;;;;;;;15.87;77.30;99540.50;1996618;78;21203;-73
2021/06/15 05:19:03;;;;;;;2.91;1.98;;;;;;;16.24;75.72;99542.22;1996572;81;20238;-75
2021/06/15 05:22:26;;;;;;;4.22;2.20;;;;;;;16.55;74.76;99548.41;1996287;81;20556;-75
2021/06/15 05:25:30;;;;;;;3.44;2.21;;;;;;;16.90;73.58;99546.63;1997146;81;20202;-77
2021/06/15 05:28:32;;;;;;;6.00;2.03;;;;;;;17.28;72.25;99540.28;1998106;81;20233;-77
2021/06/15 05:31:35;;;;;;;8.56;2.54;;;;;;;17.72;70.67;99541.59;1994786;78;20282;-77
2021/06/15 05:34:38;;;;;;;4.54;2.26;;;;;;;18.12;69.22;99542.94;1996108;81;20236;-77
2021/06/15 05:37:42;;;;;;;3.22;2.01;;;;;;;18.57;67.42;99550.22;1996297;81;20249;-78
2021/06/15 05:40:45;;;;;;;3.15;2.11;;;;;;;19.04;65.92;99548.59;1997907;81;20186;-78
2021/06/15 05:43:48;;;;;;;6.63;2.28;;;;;;;19.37;65.22;99546.47;1998420;81;20228;-79
2021/06/15 05:46:50;;;;;;;4.57;2.22;;;;;;;19.61;64.49;99545.56;1996864;78;20767;-78
2021/06/15 05:49:53;;;;;;;5.80;2.74;;;;;;;19.87;63.82;99543.69;1999194;81;20187;-78
2021/06/15 05:52:56;;;;;;;3.50;2.40;;;;;;;20.22;62.95;99551.00;1998298;81;20364;-78
2021/06/15 05:55:59;;;;;;;8.52;2.22;;;;;;;20.61;62.01;99550.28;1999777;81;20207;-79
2021/06/15 05:59:02;;;;;;;6.47;2.56;;;;;;;20.88;61.01;99555.31;1999908;81;20572;-78
2021/06/15 06:02:05;;;;;;;6.16;2.76;;;;;;;21.18;60.24;99553.06;1999484;79;23479;-78
2021/06/15 06:08:16;;;;;;;5.70;2.74;;;;;;;21.89;58.18;99557.69;2000797;81;20175;-79
2021/06/15 06:11:20;;;;;;;5.69;2.71;;;;;;;22.10;57.83;99555.84;2000424;81;20203;-80
2021/06/15 06:14:22;;;;;;;11.36;2.76;;;;;;;22.29;57.96;99551.34;2000029;81;20194;-78
2021/06/15 06:17:26;;;;;;;9.27;3.17;;;;;;;22.56;57.71;99549.09;1997105;78;22685;-77
2021/06/15 06:20:42;;;;;;;9.38;3.24;;;;;;;22.89;57.01;99543.88;1999760;81;20166;-77
2021/06/15 06:23:45;;;;;;;8.21;2.80;;;;;;;22.65;56.78;99547.78;1998715;81;20597;-76
2021/06/15 06:26:50;;;;;;;8.25;3.04;;;;;;;22.77;57.54;99549.78;1993820;81;20206;-77
2021/06/15 06:29:52;;;;;;;13.21;3.34;;;;;;;23.00;56.65;99553.06;1998403;81;20242;-78
2021/06/15 06:32:55;;;;;;;7.56;3.03;;;;;;;23.05;54.61;99561.63;1997576;78;24890;-79
2021/06/15 06:35:58;;;;;;;4.81;2.88;;;;;;;23.13;53.94;99565.56;1998411;81;21243;-79
2021/06/15 06:39:02;;;;;;;8.39;2.80;;;;;;;23.45;52.32;99568.28;1998459;81;20178;-79
2021/06/15 06:42:05;;;;;;;8.09;2.78;;;;;;;23.64;51.52;99571.66;1998423;81;20610;-78
2021/06/15 06:45:08;;;;;;;7.06;2.14;;;;;;;23.83;51.22;99578.59;2002551;81;20187;-80
2021/06/15 06:48:11;;;;;;;8.94;2.19;;;;;;;23.85;50.77;99584.69;1999448;79;24074;-79
2021/06/15 06:51:14;;;;;;;5.41;2.01;;;;;;;24.02;51.16;99584.59;2001164;81;20175;-79
2021/06/15 06:54:16;;;;;;;5.34;2.22;;;;;;;24.03;51.07;99587.16;2001837;81;20645;-79
2021/06/15 06:57:19;;;;;;;6.04;1.90;;;;;;;24.28;51.01;99585.78;2002683;81;20295;-78
2021/06/15 07:00:22;;;;;;;6.11;1.83;;;;;;;24.66;50.79;99586.22;1992060;81;970093;-80
2021/06/15 07:03:25;;;;;;;4.56;1.74;;;;;;;25.04;48.94;99586.63;2001704;81;20178;-76
2021/06/15 07:06:28;;;;;;;6.20;1.75;;;;;;;25.45;48.32;99586.72;1998246;81;20231;-77
2021/06/15 07:09:33;;;;;;;6.39;1.88;;;;;;;25.84;46.98;99577.19;2005134;81;20170;-80
2021/06/15 07:12:37;;;;;;;4.03;1.60;;;;;;;25.98;45.98;99581.63;1998719;81;20163;-78
2021/06/15 07:15:40;;;;;;;6.31;1.56;;;;;;;26.19;45.81;99578.41;1997571;78;21157;-76
2021/06/15 07:18:43;;;;;;;4.35;1.59;;;;;;;26.49;46.62;99578.22;1998600;81;20170;-76
2021/06/15 07:21:45;;;;;;;3.41;1.50;;;;;;;26.67;46.75;99576.13;1997462;81;20231;-77
2021/06/15 07:24:48;;;;;;;3.29;1.50;;;;;;;26.83;45.78;99572.44;1997456;81;20178;-82
2021/06/15 07:27:51;;;;;;;3.39;1.88;;;;;;;26.68;44.00;99569.84;2000660;81;20201;-82
2021/06/15 07:30:53;;;;;;;6.24;1.70;;;;;;;26.58;44.11;99576.78;1996936;78;21082;-79
2021/06/15 07:33:57;;;;;;;6.21;1.50;;;;;;;26.62;45.32;99575.59;1999647;81;20754;-79
2021/06/15 07:37:00;;;;;;;5.80;1.84;;;;;;;26.63;46.20;99573.78;1998824;81;20216;-78
2021/06/15 07:40:08;;;;;;;5.09;1.46;;;;;;;26.66;46.35;99577.09;1998816;81;20174;-84
2021/06/15 07:43:12;;;;;;;;;;;;;;;26.67;46.12;99572.63;2002046;81;20178;-80
2021/06/15 07:46:15;;;;;;;8.27;2.08;;;;;;;26.71;45.64;99576.78;1996729;78;109140;-79
2021/06/15 07:49:18;;;;;;;4.54;1.83;;;;;;;26.73;44.34;99580.19;2000059;81;20724;-77
2021/06/15 07:52:27;;;;;;;5.09;1.83;;;;;;;26.85;45.23;99575.84;1998134;81;20267;-83
2021/06/15 07:55:30;;;;;;;11.96;3.31;;;;;;;26.89;44.94;99580.00;1999787;81;20203;-79
2021/06/15 07:58:32;;;;;;;14.54;4.65;;;;;;;26.94;43.08;99576.09;1998110;81;20198;-80
2021/06/15 08:01:35;;;;;;;11.90;3.80;;;;;;;27.05;43.62;99568.22;1996960;81;23138;-81
2021/06/15 08:04:38;;;;;;;8.27;3.75;;;;;;;27.25;44.06;99572.16;1997872;81;20178;-81
2021/06/15 08:07:42;;;;;;;16.16;3.90;;;;;;;27.52;43.30;99571.16;1998267;81;20707;-83
2021/06/15 08:10:45;;;;;;;9.49;3.72;;;;;;;27.42;41.19;99564.78;2004766;81;20275;-85
2021/06/15 08:13:47;;;;;;;15.76;4.57;;;;;;;27.45;41.50;99561.88;1998329;81;20269;-83
2021/06/15 08:16:50;;;;;;;14.30;4.61;;;;;;;27.64;41.91;99559.63;1996842;78;21584;-82
2021/06/15 08:19:53;;;;;;;15.02;4.51;;;;;;;27.87;42.03;99560.66;1997230;81;20713;-82
2021/06/15 08:22:55;;;;;;;18.71;4.47;;;;;;;28.07;40.88;99556.50;1997475;81;20589;-83
2021/06/15 08:25:58;;;;;;;14.76;4.39;;;;;;;28.32;40.41;99547.53;1997903;81;20190;-83
2021/06/15 08:29:01;;;;;;;13.94;4.28;;;;;;;28.63;41.56;99554.09;1998112;81;20174;-86
2021/06/15 08:32:04;;;;;;;11.86;4.20;;;;;;;28.74;40.71;99554.13;1996386;81;20723;-82
2021/06/15 08:35:07;;;;;;;11.35;4.03;;;;;;;28.65;38.04;99553.00;1996317;81;20182;-83
2021/06/15 08:38:10;;;;;;;10.89;3.84;;;;;;;28.59;38.02;99550.81;1996785;81;20183;-84
2021/06/15 08:41:17;;;;;;;10.61;3.47;;;;;;;28.79;39.07;99552.81;1996731;81;20237;-81
2021/06/15 08:44:19;;;;;;;11.15;2.64;;;;;;;28.98;38.06;99549.59;1996746;81;20209;-83
2021/06/15 08:47:22;;;;;;;17.44;3.39;;;;;;;29.21;38.44;99553.13;1995671;78;20578;-84
2021/06/15 08:50:27;;;;;;;8.26;2.54;;;;;;;29.27;36.93;99549.13;1997003;81;20240;-79
2021/06/15 08:53:37;;;;;;;9.57;2.86;;;;;;;29.13;35.84;99545.72;1996680;81;20214;-78
2021/06/15 08:56:39;;;;;;;7.76;2.50;;;;;;;29.23;37.21;99544.97;1996952;81;20174;-79
2021/06/15 08:59:42;;;;;;;13.38;2.41;;;;;;;29.22;34.70;99545.94;1997472;81;20948;-80
2021/06/15 09:02:46;;;;;;;13.40;2.61;;;;;;;29.41;36.36;99548.88;1995408;78;51785;-77
2021/06/15 09:05:49;;;;;;;18.01;3.26;;;;;;;29.73;36.89;99543.63;1995949;81;20202;-76
2021/06/15 09:08:57;;;;;;;10.01;2.41;;;;;;;29.97;36.24;99543.44;1996385;81;20212;-77
2021/06/15 09:11:59;;;;;;;7.61;2.10;;;;;;;30.10;36.25;99546.00;1995790;81;20190;-76
2021/06/15 09:15:02;;;;;;;12.69;2.11;;;;;;;30.12;36.59;99547.59;1996298;81;20250;-76
2021/06/15 09:18:05;;;;;;;15.82;1.98;;;;;;;29.89;33.89;99538.75;1984988;81;1014048;-77
2021/06/15 09:21:08;;;;;;;7.82;1.50;;;;;;;29.98;34.82;99538.00;1995422;81;20772;-76
2021/06/15 09:24:23;;;;;;;11.94;2.14;;;;;;;30.18;35.52;99541.72;1995293;81;20208;-79
2021/06/15 09:27:31;;;;;;;6.94;1.61;;;;;;;30.33;36.05;99537.75;1995881;81;20191;-78
2021/06/15 09:30:34;;;;;;;12.79;2.60;;;;;;;30.50;35.15;99530.13;1995408;78;21764;-77
2021/06/15 09:33:43;;;;;;;8.18;3.03;;;;;;;30.59;34.01;99534.72;1996491;81;20698;-77
2021/06/15 09:36:46;;;;;;;7.82;2.51;;;;;;;30.37;32.43;99535.69;1995635;81;20196;-76
2021/06/15 09:39:49;;;;;;;8.24;1.85;;;;;;;30.26;31.65;99533.03;1995199;81;20204;-76
2021/06/15 09:42:54;;;;;;;8.19;1.46;;;;;;;30.26;33.12;99536.56;1995553;81;20239;-76
2021/06/15 09:45:57;;;;;;;9.14;1.70;;;;;;;30.44;34.23;99544.91;1995494;78;21553;-76
2021/06/15 09:49:00;;;;;;;8.96;1.51;;;;;;;30.60;33.25;99533.72;1995836;81;20211;-76
2021/06/15 09:52:22;;;;;;;6.97;1.20;;;;;;;30.88;33.99;99532.22;1994956;81;20276;-78
2021/06/15 09:55:25;;;;;;;4.56;1.16;;;;;;;31.09;33.53;99542.97;1995133;81;20182;-75
2021/06/15 09:58:41;;;;;;;4.32;1.10;;;;;;;31.17;33.59;99533.28;1995220;81;20202;-75
2021/06/15 10:02:03;;;;;;;4.85;1.10;;;;;;;31.07;31.68;99526.16;1995302;78;22452;-75
2021/06/15 10:05:39;;;;;;;1.75;0.84;;;;;;;31.06;32.18;99527.09;1995697;81;20183;-76
2021/06/15 10:08:45;;;;;;;5.39;0.84;;;;;;;31.08;30.18;99520.66;1995503;81;20170;-76
2021/06/15 10:11:57;;;;;;;3.15;0.70;;;;;;;31.34;32.00;99522.91;1995348;81;20196;-76
2021/06/15 10:15:00;;;;;;;1.92;1.00;;;;;;;31.43;31.61;99524.78;1995490;81;20991;-75
2021/06/15 10:18:03;;;;;;;3.91;1.00;;;;;;;31.57;32.88;99527.06;1989545;78;21833;-79
2021/06/15 10:21:07;;;;;;;3.25;0.90;;;;;;;31.62;31.50;99521.31;1990405;81;20680;-75
2021/06/15 10:28:36;;;;;;;3.30;0.90;;;;;;;32.07;30.14;99517.16;1988375;81;20643;-75
2021/06/15 10:31:41;;;;;;;3.78;0.80;;;;;;;32.17;28.37;99519.84;1988661;78;21414;-74
2021/06/15 10:35:04;;;;;;;5.47;0.89;;;;;;;32.23;27.92;99513.91;1991280;81;20207;-78
2021/06/15 10:38:07;;;;;;;2.01;0.94;;;;;;;31.97;29.01;99519.00;1990484;81;20163;-75
2021/06/15 10:41:23;;;;;;;4.20;1.10;;;;;;;32.16;28.71;99510.09;1991040;81;20228;-74
2021/06/15 10:44:28;;;;;;;7.74;1.02;;;;;;;31.83;28.54;99506.81;1991206;81;20183;-79
2021/06/15 10:47:30;;;;;;;5.26;1.01;;;;;;;31.54;28.78;99517.44;1992348;78;20210;-77
2021/06/15 10:50:39;;;;;;;3.17;1.10;;;;;;;31.42;28.74;99515.88;1996132;81;20202;-80
2021/06/15 10:53:42;;;;;;;3.21;1.14;;;;;;;31.76;29.76;99512.88;1992541;81;20669;-79
2021/06/15 10:57:13;;;;;;;3.36;1.26;;;;;;;32.10;29.45;99508.81;1994922;81;20208;-79
2021/06/15 11:00:29;;;;;;;2.99;1.02;;;;;;;32.34;29.45;99521.88;1995326;81;20925;-77
2021/06/15 11:03:31;;;;;;;7.07;0.91;;;;;;;32.44;28.69;99516.47;1997631;81;20923;-79
2021/06/15 11:06:34;;;;;;;5.06;0.90;;;;;;;32.58;28.89;99517.88;1996827;81;20167;-78
2021/06/15 11:09:43;;;;;;;3.00;1.04;;;;;;;32.71;28.32;99507.66;1996460;81;21047;-78
2021/06/15 11:12:47;;;;;;;4.46;0.90;;;;;;;32.70;26.89;99503.28;1996469;81;20205;-79
2021/06/15 11:15:59;;;;;;;4.20;0.86;;;;;;;32.92;27.54;99504.81;1995915;78;21576;-77
2021/06/15 11:19:11;;;;;;;4.85;0.80;;;;;;;32.95;28.18;99502.66;1996555;81;20175;-80
2021/06/15 11:22:22;;;;;;;6.24;1.29;;;;;;;33.07;28.99;99497.13;1996050;81;20196;-78
2021/06/15 11:25:46;;;;;;;7.28;1.19;;;;;;;33.17;26.89;99493.38;1996785;81;20224;-81
2021/06/15 11:28:58;;;;;;;2.61;0.90;;;;;;;33.26;26.35;99492.50;1996021;81;20253;-79
2021/06/15 11:32:25;;;;;;;3.42;0.82;;;;;;;33.31;26.96;99492.88;1995956;79;33228;-79
2021/06/15 11:35:30;;;;;;;9.60;1.00;;;;;;;33.16;25.83;99485.44;1996425;81;20227;-79
2021/06/15 11:38:32;;;;;;;1.64;1.00;;;;;;;33.21;27.21;99478.59;1996568;81;20212;-79
2021/06/15 11:42:06;;;;;;;2.39;1.00;;;;;;;33.42;27.04;99481.09;1996842;81;20163;-83
2021/06/15 11:45:33;;;;;;;2.89;1.00;;;;;;;33.47;25.68;99491.41;1995457;81;20219;-78
2021/06/15 11:48:38;;;;;;;2.49;1.20;;;;;;;33.33;26.29;99490.06;1996024;81;20769;-76
2021/06/15 11:51:41;;;;;;;3.28;1.17;;;;;;;33.37;26.75;99486.06;1996270;81;20220;-75
2021/06/15 11:54:44;;;;;;;4.94;0.94;;;;;;;33.43;25.78;99479.25;1995574;81;20248;-78
2021/06/15 11:57:47;;;;;;;6.86;1.16;;;;;;;33.32;25.92;99480.25;1995778;81;20190;-75
2021/06/15 12:01:02;;;;;;;2.78;1.19;;;;;;;32.82;26.22;99469.00;1995261;78;21415;-79
2021/06/15 12:04:08;;;;;;;3.78;1.15;;;;;;;32.84;28.30;99478.63;1996735;81;20709;-76
2021/06/15 12:07:31;;;;;;;4.65;1.02;;;;;;;33.09;26.41;99474.44;1996544;81;20198;-78
2021/06/15 12:10:37;;;;;;;1.75;1.08;;;;;;;33.26;25.66;99475.50;1996097;81;21316;-79
2021/06/15 12:13:42;;;;;;;;;;;;;;;33.38;25.90;99476.16;1996425;81;20210;-79
2021/06/15 12:16:45;;;;;;;5.71;1.00;;;;;;;33.56;25.01;99469.81;1995503;78;21551;-77
2021/06/15 12:19:48;;;;;;;2.50;0.86;;;;;;;33.49;24.72;99470.56;1996180;81;20593;-80
2021/06/15 12:22:51;;;;;;;6.20;1.19;;;;;;;33.32;24.59;99470.38;1996296;81;20195;-78
2021/06/15 12:25:56;;;;;;;3.58;1.02;;;;;;;33.06;25.16;99469.34;1996102;81;20192;-76
2021/06/15 12:29:08;;;;;;;2.22;1.10;;;;;;;33.03;25.62;99462.41;1995409;81;20572;-77
2021/06/15 12:32:11;;;;;;;3.94;1.08;;;;;;;33.38;26.10;99458.16;1995369;78;20451;-75
2021/06/15 12:35:16;;;;;;;2.14;0.91;;;;;;;33.72;26.00;99460.22;1995739;81;20159;-75
2021/06/15 12:38:21;;;;;;;4.03;1.00;;;;;;;33.44;24.62;99452.19;1995553;81;20218;-75
2021/06/15 12:41:25;;;;;;;3.20;1.10;;;;;;;33.51;27.20;99450.56;1995607;81;20328;-82
2021/06/15 12:44:42;;;;;;;2.72;0.96;;;;;;;33.43;25.05;99455.03;1996329;81;20179;-83
2021/06/15 12:47:46;;;;;;;3.33;1.09;;;;;;;33.39;24.83;99445.53;1995027;79;21458;-76
2021/06/15 12:51:07;;;;;;;3.97;0.90;;;;;;;33.12;25.93;99441.84;1996096;81;20342;-76
2021/06/15 12:54:32;;;;;;;4.22;1.10;;;;;;;33.20;26.44;99439.22;1995988;81;20259;-76
2021/06/15 12:57:34;;;;;;;3.40;0.90;;;;;;;33.34;26.85;99438.75;1995827;81;20689;-76
2021/06/15 13:00:44;;;;;;;3.21;0.82;;;;;;;33.02;25.71;99438.34;1995463;81;22717;-76
2021/06/15 13:03:48;;;;;;;4.84;1.10;;;;;;;32.95;25.86;99440.78;1995975;81;20294;-79
2021/06/15 13:06:53;;;;;;;1.91;0.90;;;;;;;32.69;25.53;99427.13;1995546;81;20795;-77
2021/06/15 13:09:57;;;;;;;3.78;1.02;;;;;;;32.77;26.49;99431.75;1995861;81;20553;-78
2021/06/15 13:13:02;;;;;;;6.40;1.10;;;;;;;33.08;26.78;99424.31;1995680;81;20179;-77
2021/06/15 13:16:14;;;;;;;1.52;0.90;;;;;;;33.18;26.04;99422.38;1995558;79;20625;-77
2021/06/15 13:19:19;;;;;;;1.96;1.09;;;;;;;32.81;25.37;99429.66;1996633;81;20222;-76
2021/06/15 13:22:28;;;;;;;4.19;1.10;;;;;;;32.51;25.54;99423.50;1995824;81;20624;-77
2021/06/15 13:25:33;;;;;;;2.91;1.00;;;;;;;32.34;25.25;99421.56;1996626;81;20338;-77
2021/06/15 13:28:36;;;;;;;3.71;1.17;;;;;;;32.31;26.44;99419.13;1995699;81;20199;-77
2021/06/15 13:31:38;;;;;;;4.97;0.95;;;;;;;32.70;27.30;99417.22;1995428;78;20760;-77
2021/06/15 13:35:15;;;;;;;3.70;1.35;;;;;;;32.77;25.75;99415.63;1996689;81;20194;-77
2021/06/15 13:38:26;;;;;;;6.20;1.15;;;;;;;33.13;27.00;99413.09;1994506;81;20256;-77
2021/06/15 13:41:28;;;;;;;3.65;1.11;;;;;;;33.10;26.26;99408.00;1996875;81;20681;-78
2021/06/15 13:44:34;;;;;;;3.44;1.20;;;;;;;32.81;26.04;99406.28;1996151;81;20306;-80
2021/06/15 13:47:38;;;;;;;1.88;1.00;;;;;;;32.98;27.17;99405.50;1994808;78;21727;-82
2021/06/15 13:50:43;;;;;;;2.64;0.99;;;;;;;33.15;28.20;99398.47;1997042;81;20166;-78
2021/06/15 13:53:46;;;;;;;2.95;1.15;;;;;;;33.38;27.44;99398.06;1995925;81;20218;-76
2021/06/15 13:56:48;;;;;;;3.14;1.08;;;;;;;33.43;25.51;99395.78;1995952;81;20178;-78
2021/06/15 13:59:51;;;;;;;2.22;0.98;;;;;;;33.40;25.36;99390.72;1995648;81;20174;-77
2021/06/15 14:02:55;;;;;;;3.10;1.15;;;;;;;33.43;25.53;99382.34;1995012;78;31192;-80
2021/06/15 14:05:57;;;;;;;3.17;1.00;;;;;;;33.32;25.11;99391.44;1996307;81;20223;-79
2021/06/15 14:09:02;;;;;;;1.98;1.00;;;;;;;33.43;26.38;99379.66;1996478;81;20327;-80
2021/06/15 14:12:07;;;;;;;2.56;0.94;;;;;;;33.48;25.78;99383.56;1996044;81;20222;-83
2021/06/15 14:15:14;;;;;;;3.71;0.89;;;;;;;33.54;25.86;99382.09;1996108;81;20280;-80
2021/06/15 14:18:17;;;;;;;2.55;0.90;;;;;;;33.71;25.87;99380.41;1996093;78;23411;-81
2021/06/15 14:21:20;;;;;;;2.64;0.82;;;;;;;33.82;26.70;99378.31;1996499;81;20673;-81
2021/06/15 14:24:23;;;;;;;3.08;0.93;;;;;;;33.89;26.58;99374.03;1996046;81;20222;-79
2021/06/15 14:27:26;;;;;;;3.63;1.40;;;;;;;34.00;25.89;99382.88;1995494;81;20855;-80
2021/06/15 14:30:29;;;;;;;3.56;0.98;;;;;;;34.09;24.74;99371.97;1994078;78;20522;-78
2021/06/15 14:33:33;;;;;;;3.03;0.93;;;;;;;33.87;25.45;99372.50;1995601;81;20178;-79
2021/06/15 14:36:36;;;;;;;1.38;0.80;;;;;;;33.93;26.37;99369.16;1998559;81;20182;-80
2021/06/15 14:39:38;;;;;;;4.91;0.88;;;;;;;33.98;25.87;99369.56;1997622;81;20409;-78
2021/06/15 14:42:43;;;;;;;4.56;1.20;;;;;;;33.87;25.62;99367.09;1996960;81;20178;-79
2021/06/15 14:45:46;;;;;;;3.66;1.10;;;;;;;33.93;25.49;99367.34;1995662;78;23433;-77
2021/06/15 14:48:48;;;;;;;6.07;0.94;;;;;;;33.77;25.69;99366.34;1996954;81;20564;-79
2021/06/15 14:51:51;;;;;;;4.94;1.02;;;;;;;33.50;26.61;99359.16;1996092;81;20175;-79
2021/06/15 14:54:54;;;;;;;4.84;0.98;;;;;;;33.52;27.24;99360.69;1997970;81;20239;-78